sensor_id;sensor_type;location;lat;lon;timestamp;P1;durP1;ratioP1;P2;durP2;ratioP2
34144;SDS011;69555;53.014;8.886;2023-07-22T00:02:24;14.13;;;8.95;;
34144;SDS011;69555;53.014;8.886;2023-07-22T00:04:50;16.25;;;9.25;;
34144;SDS011;69555;53.014;8.886;2023-07-22T00:07:18;16.23;;;8.38;;
34144;SDS011;69555;53.014;8.886;2023-07-22T00:09:45;21.75;;;8.88;;
34144;SDS011;69555;53.014;8.886;2023-07-22T00:12:12;15.27;;;9.27;;
34144;SDS011;69555;53.014;8.886;2023-07-22T00:14:44;14.10;;;9.20;;
34144;SDS011;69555;53.014;8.886;2023-07-22T00:17:10;12.75;;;8.45;;
34144;SDS011;69555;53.014;8.886;2023-07-22T00:19:36;16.85;;;9.90;;
34144;SDS011;69555;53.014;8.886;2023-07-22T00:22:03;18.35;;;9.27;;
34144;SDS011;69555;53.014;8.886;2023-07-22T00:24:30;14.25;;;9.82;;
34144;SDS011;69555;53.014;8.886;2023-07-22T00:26:58;15.85;;;9.27;;
34144;SDS011;69555;53.014;8.886;2023-07-22T00:29:25;15.95;;;9.43;;
34144;SDS011;69555;53.014;8.886;2023-07-22T00:31:50;21.65;;;10.07;;
34144;SDS011;69555;53.014;8.886;2023-07-22T00:34:16;18.23;;;9.32;;
34144;SDS011;69555;53.014;8.886;2023-07-22T00:36:42;15.82;;;9.98;;
34144;SDS011;69555;53.014;8.886;2023-07-22T00:39:10;20.48;;;9.90;;
34144;SDS011;69555;53.014;8.886;2023-07-22T00:44:08;16.23;;;10.18;;
34144;SDS011;69555;53.014;8.886;2023-07-22T00:46:35;17.83;;;9.85;;
34144;SDS011;69555;53.014;8.886;2023-07-22T00:49:02;17.50;;;9.65;;
34144;SDS011;69555;53.014;8.886;2023-07-22T00:51:29;16.15;;;10.13;;
34144;SDS011;69555;53.014;8.886;2023-07-22T00:53:54;24.73;;;10.50;;
34144;SDS011;69555;53.014;8.886;2023-07-22T00:56:21;15.68;;;10.05;;
34144;SDS011;69555;53.014;8.886;2023-07-22T00:58:48;15.40;;;8.85;;
34144;SDS011;69555;53.014;8.886;2023-07-22T01:01:15;17.52;;;10.63;;
34144;SDS011;69555;53.014;8.886;2023-07-22T01:03:42;18.70;;;9.43;;
34144;SDS011;69555;53.014;8.886;2023-07-22T01:06:11;19.15;;;8.95;;
34144;SDS011;69555;53.014;8.886;2023-07-22T01:08:39;19.15;;;8.85;;
34144;SDS011;69555;53.014;8.886;2023-07-22T01:11:06;17.50;;;9.85;;
34144;SDS011;69555;53.014;8.886;2023-07-22T01:13:32;13.90;;;8.60;;
34144;SDS011;69555;53.014;8.886;2023-07-22T01:15:59;14.73;;;9.40;;
34144;SDS011;69555;53.014;8.886;2023-07-22T01:18:26;17.10;;;10.02;;
34144;SDS011;69555;53.014;8.886;2023-07-22T01:20:53;18.42;;;9.77;;
34144;SDS011;69555;53.014;8.886;2023-07-22T01:23:20;20.15;;;9.93;;
34144;SDS011;69555;53.014;8.886;2023-07-22T01:25:46;18.05;;;9.73;;
34144;SDS011;69555;53.014;8.886;2023-07-22T01:28:14;17.85;;;8.85;;
34144;SDS011;69555;53.014;8.886;2023-07-22T01:30:39;16.83;;;9.13;;
34144;SDS011;69555;53.014;8.886;2023-07-22T01:33:06;14.95;;;8.52;;
34144;SDS011;69555;53.014;8.886;2023-07-22T01:35:32;14.80;;;8.82;;
34144;SDS011;69555;53.014;8.886;2023-07-22T01:37:59;14.70;;;8.50;;
34144;SDS011;69555;53.014;8.886;2023-07-22T01:40:25;14.80;;;9.10;;
34144;SDS011;69555;53.014;8.886;2023-07-22T01:42:50;17.63;;;8.75;;
34144;SDS011;69555;53.014;8.886;2023-07-22T01:45:17;16.35;;;9.60;;
34144;SDS011;69555;53.014;8.886;2023-07-22T01:47:44;15.77;;;8.30;;
34144;SDS011;69555;53.014;8.886;2023-07-22T01:50:11;14.60;;;9.32;;
34144;SDS011;69555;53.014;8.886;2023-07-22T01:52:37;18.95;;;9.40;;
34144;SDS011;69555;53.014;8.886;2023-07-22T01:55:04;17.30;;;8.43;;
34144;SDS011;69555;53.014;8.886;2023-07-22T01:57:32;18.48;;;9.10;;
34144;SDS011;69555;53.014;8.886;2023-07-22T01:59:59;19.55;;;9.65;;
34144;SDS011;69555;53.014;8.886;2023-07-22T02:02:26;23.50;;;9.98;;
34144;SDS011;69555;53.014;8.886;2023-07-22T02:04:53;14.48;;;8.45;;
34144;SDS011;69555;53.014;8.886;2023-07-22T02:07:19;17.95;;;8.85;;
34144;SDS011;69555;53.014;8.886;2023-07-22T02:09:46;15.15;;;7.82;;
34144;SDS011;69555;53.014;8.886;2023-07-22T02:12:12;15.13;;;8.18;;
34144;SDS011;69555;53.014;8.886;2023-07-22T02:14:39;16.02;;;8.60;;
34144;SDS011;69555;53.014;8.886;2023-07-22T02:17:07;17.85;;;8.65;;
34144;SDS011;69555;53.014;8.886;2023-07-22T02:19:35;17.95;;;7.90;;
34144;SDS011;69555;53.014;8.886;2023-07-22T02:22:03;17.15;;;8.13;;
34144;SDS011;69555;53.014;8.886;2023-07-22T02:24:30;18.67;;;8.15;;
34144;SDS011;69555;53.014;8.886;2023-07-22T02:26:58;14.52;;;7.63;;
34144;SDS011;69555;53.014;8.886;2023-07-22T02:29:25;13.38;;;7.32;;
34144;SDS011;69555;53.014;8.886;2023-07-22T02:31:51;16.75;;;8.43;;
34144;SDS011;69555;53.014;8.886;2023-07-22T02:34:18;14.63;;;8.07;;
34144;SDS011;69555;53.014;8.886;2023-07-22T02:36:43;13.18;;;7.95;;
34144;SDS011;69555;53.014;8.886;2023-07-22T02:39:10;21.40;;;8.35;;
34144;SDS011;69555;53.014;8.886;2023-07-22T02:41:37;16.92;;;8.35;;
34144;SDS011;69555;53.014;8.886;2023-07-22T02:44:03;19.00;;;8.45;;
34144;SDS011;69555;53.014;8.886;2023-07-22T02:46:30;18.25;;;8.98;;
34144;SDS011;69555;53.014;8.886;2023-07-22T02:48:58;16.55;;;8.80;;
34144;SDS011;69555;53.014;8.886;2023-07-22T02:51:25;15.48;;;8.93;;
34144;SDS011;69555;53.014;8.886;2023-07-22T02:53:51;17.05;;;8.48;;
34144;SDS011;69555;53.014;8.886;2023-07-22T02:56:18;15.23;;;8.23;;
34144;SDS011;69555;53.014;8.886;2023-07-22T02:58:45;23.20;;;8.48;;
34144;SDS011;69555;53.014;8.886;2023-07-22T03:01:12;17.20;;;8.15;;
34144;SDS011;69555;53.014;8.886;2023-07-22T03:03:38;19.40;;;9.40;;
34144;SDS011;69555;53.014;8.886;2023-07-22T03:06:06;16.48;;;8.52;;
34144;SDS011;69555;53.014;8.886;2023-07-22T03:08:34;15.25;;;8.75;;
34144;SDS011;69555;53.014;8.886;2023-07-22T03:11:01;21.52;;;9.60;;
34144;SDS011;69555;53.014;8.886;2023-07-22T03:13:28;18.25;;;8.68;;
34144;SDS011;69555;53.014;8.886;2023-07-22T03:15:54;17.83;;;8.90;;
34144;SDS011;69555;53.014;8.886;2023-07-22T03:18:22;13.75;;;8.25;;
34144;SDS011;69555;53.014;8.886;2023-07-22T03:20:48;17.70;;;8.75;;
34144;SDS011;69555;53.014;8.886;2023-07-22T03:23:15;16.35;;;8.77;;
34144;SDS011;69555;53.014;8.886;2023-07-22T03:25:42;29.80;;;9.05;;
34144;SDS011;69555;53.014;8.886;2023-07-22T03:28:08;22.45;;;10.25;;
34144;SDS011;69555;53.014;8.886;2023-07-22T03:30:35;22.40;;;9.93;;
34144;SDS011;69555;53.014;8.886;2023-07-22T03:33:02;18.15;;;9.57;;
34144;SDS011;69555;53.014;8.886;2023-07-22T03:35:29;17.65;;;9.43;;
34144;SDS011;69555;53.014;8.886;2023-07-22T03:37:55;22.33;;;8.77;;
34144;SDS011;69555;53.014;8.886;2023-07-22T03:40:21;20.52;;;9.98;;
34144;SDS011;69555;53.014;8.886;2023-07-22T03:42:57;16.92;;;8.68;;
34144;SDS011;69555;53.014;8.886;2023-07-22T03:45:24;21.65;;;8.93;;
34144;SDS011;69555;53.014;8.886;2023-07-22T03:47:51;19.30;;;9.10;;
34144;SDS011;69555;53.014;8.886;2023-07-22T03:50:27;19.50;;;8.77;;
34144;SDS011;69555;53.014;8.886;2023-07-22T03:52:54;14.98;;;8.93;;
34144;SDS011;69555;53.014;8.886;2023-07-22T03:55:21;20.60;;;9.52;;
34144;SDS011;69555;53.014;8.886;2023-07-22T03:57:48;26.58;;;10.80;;
34144;SDS011;69555;53.014;8.886;2023-07-22T04:00:15;21.67;;;9.48;;
34144;SDS011;69555;53.014;8.886;2023-07-22T04:02:41;21.67;;;10.18;;
34144;SDS011;69555;53.014;8.886;2023-07-22T04:05:08;19.33;;;9.52;;
34144;SDS011;69555;53.014;8.886;2023-07-22T04:07:35;19.05;;;9.30;;
34144;SDS011;69555;53.014;8.886;2023-07-22T04:10:01;21.15;;;9.50;;
34144;SDS011;69555;53.014;8.886;2023-07-22T04:12:28;18.75;;;9.00;;
34144;SDS011;69555;53.014;8.886;2023-07-22T04:14:55;18.95;;;8.73;;
34144;SDS011;69555;53.014;8.886;2023-07-22T04:17:22;23.88;;;8.45;;
34144;SDS011;69555;53.014;8.886;2023-07-22T04:19:47;19.83;;;10.10;;
34144;SDS011;69555;53.014;8.886;2023-07-22T04:22:14;19.95;;;9.65;;
34144;SDS011;69555;53.014;8.886;2023-07-22T04:24:40;16.90;;;9.18;;
34144;SDS011;69555;53.014;8.886;2023-07-22T04:27:07;31.52;;;10.40;;
34144;SDS011;69555;53.014;8.886;2023-07-22T04:29:34;25.98;;;10.07;;
34144;SDS011;69555;53.014;8.886;2023-07-22T04:32:01;17.13;;;8.45;;
34144;SDS011;69555;53.014;8.886;2023-07-22T04:34:32;16.00;;;7.95;;
34144;SDS011;69555;53.014;8.886;2023-07-22T04:36:59;21.33;;;9.15;;
34144;SDS011;69555;53.014;8.886;2023-07-22T04:39:25;20.38;;;8.90;;
34144;SDS011;69555;53.014;8.886;2023-07-22T04:41:52;15.30;;;8.32;;
34144;SDS011;69555;53.014;8.886;2023-07-22T04:44:19;11.35;;;7.28;;
34144;SDS011;69555;53.014;8.886;2023-07-22T04:46:46;15.95;;;7.40;;
34144;SDS011;69555;53.014;8.886;2023-07-22T04:49:13;16.83;;;6.85;;
34144;SDS011;69555;53.014;8.886;2023-07-22T04:51:46;10.73;;;6.55;;
34144;SDS011;69555;53.014;8.886;2023-07-22T04:54:13;13.45;;;7.40;;
34144;SDS011;69555;53.014;8.886;2023-07-22T04:56:41;13.43;;;6.97;;
34144;SDS011;69555;53.014;8.886;2023-07-22T04:59:08;12.40;;;6.72;;
34144;SDS011;69555;53.014;8.886;2023-07-22T05:01:35;14.18;;;7.28;;
34144;SDS011;69555;53.014;8.886;2023-07-22T05:04:01;13.55;;;6.93;;
34144;SDS011;69555;53.014;8.886;2023-07-22T05:06:28;16.60;;;7.55;;
34144;SDS011;69555;53.014;8.886;2023-07-22T05:08:54;17.63;;;7.15;;
34144;SDS011;69555;53.014;8.886;2023-07-22T05:11:21;15.40;;;7.03;;
34144;SDS011;69555;53.014;8.886;2023-07-22T05:13:49;10.60;;;6.93;;
34144;SDS011;69555;53.014;8.886;2023-07-22T05:16:16;14.80;;;7.10;;
34144;SDS011;69555;53.014;8.886;2023-07-22T05:18:42;20.27;;;7.35;;
34144;SDS011;69555;53.014;8.886;2023-07-22T05:21:09;10.45;;;6.15;;
34144;SDS011;69555;53.014;8.886;2023-07-22T05:23:36;16.30;;;7.93;;
34144;SDS011;69555;53.014;8.886;2023-07-22T05:26:03;12.77;;;6.50;;
34144;SDS011;69555;53.014;8.886;2023-07-22T05:28:30;12.25;;;7.70;;
34144;SDS011;69555;53.014;8.886;2023-07-22T05:30:56;19.05;;;7.32;;
34144;SDS011;69555;53.014;8.886;2023-07-22T05:33:22;12.50;;;6.60;;
34144;SDS011;69555;53.014;8.886;2023-07-22T05:35:47;14.48;;;7.30;;
34144;SDS011;69555;53.014;8.886;2023-07-22T05:38:14;13.30;;;7.55;;
34144;SDS011;69555;53.014;8.886;2023-07-22T05:40:40;15.10;;;7.32;;
34144;SDS011;69555;53.014;8.886;2023-07-22T05:43:07;17.00;;;8.50;;
34144;SDS011;69555;53.014;8.886;2023-07-22T05:45:34;13.20;;;6.75;;
34144;SDS011;69555;53.014;8.886;2023-07-22T05:48:00;15.60;;;7.57;;
34144;SDS011;69555;53.014;8.886;2023-07-22T05:50:27;17.25;;;6.57;;
34144;SDS011;69555;53.014;8.886;2023-07-22T05:52:54;12.48;;;6.45;;
34144;SDS011;69555;53.014;8.886;2023-07-22T05:55:20;12.52;;;6.25;;
34144;SDS011;69555;53.014;8.886;2023-07-22T05:57:47;16.80;;;6.35;;
34144;SDS011;69555;53.014;8.886;2023-07-22T06:00:14;16.45;;;6.70;;
34144;SDS011;69555;53.014;8.886;2023-07-22T06:02:41;17.80;;;7.68;;
34144;SDS011;69555;53.014;8.886;2023-07-22T06:05:08;13.15;;;6.68;;
34144;SDS011;69555;53.014;8.886;2023-07-22T06:07:33;11.73;;;5.97;;
34144;SDS011;69555;53.014;8.886;2023-07-22T06:10:00;13.38;;;7.40;;
34144;SDS011;69555;53.014;8.886;2023-07-22T06:12:27;14.57;;;6.45;;
34144;SDS011;69555;53.014;8.886;2023-07-22T06:14:52;11.80;;;6.00;;
34144;SDS011;69555;53.014;8.886;2023-07-22T06:17:20;12.77;;;6.30;;
34144;SDS011;69555;53.014;8.886;2023-07-22T06:19:45;12.02;;;6.57;;
34144;SDS011;69555;53.014;8.886;2023-07-22T06:22:12;10.38;;;6.18;;
34144;SDS011;69555;53.014;8.886;2023-07-22T06:24:39;9.52;;;6.35;;
34144;SDS011;69555;53.014;8.886;2023-07-22T06:27:06;9.40;;;5.80;;
34144;SDS011;69555;53.014;8.886;2023-07-22T06:29:33;12.38;;;6.18;;
34144;SDS011;69555;53.014;8.886;2023-07-22T06:31:59;12.82;;;6.05;;
34144;SDS011;69555;53.014;8.886;2023-07-22T06:34:26;10.32;;;5.60;;
34144;SDS011;69555;53.014;8.886;2023-07-22T06:36:52;13.23;;;6.00;;
34144;SDS011;69555;53.014;8.886;2023-07-22T06:39:18;9.45;;;5.25;;
34144;SDS011;69555;53.014;8.886;2023-07-22T06:41:43;12.10;;;5.70;;
34144;SDS011;69555;53.014;8.886;2023-07-22T06:44:08;9.95;;;4.97;;
34144;SDS011;69555;53.014;8.886;2023-07-22T06:46:34;11.70;;;5.25;;
34144;SDS011;69555;53.014;8.886;2023-07-22T06:49:00;8.45;;;4.75;;
34144;SDS011;69555;53.014;8.886;2023-07-22T06:51:25;9.77;;;5.35;;
34144;SDS011;69555;53.014;8.886;2023-07-22T06:53:51;14.02;;;5.60;;
34144;SDS011;69555;53.014;8.886;2023-07-22T06:56:16;7.93;;;5.18;;
34144;SDS011;69555;53.014;8.886;2023-07-22T06:58:41;12.60;;;5.88;;
34144;SDS011;69555;53.014;8.886;2023-07-22T07:01:07;19.02;;;5.95;;
34144;SDS011;69555;53.014;8.886;2023-07-22T07:03:32;9.85;;;5.25;;
34144;SDS011;69555;53.014;8.886;2023-07-22T07:05:58;12.98;;;5.63;;
34144;SDS011;69555;53.014;8.886;2023-07-22T07:08:24;13.45;;;5.05;;
34144;SDS011;69555;53.014;8.886;2023-07-22T07:10:49;13.27;;;5.63;;
34144;SDS011;69555;53.014;8.886;2023-07-22T07:13:16;9.02;;;4.43;;
34144;SDS011;69555;53.014;8.886;2023-07-22T07:15:46;11.00;;;5.13;;
34144;SDS011;69555;53.014;8.886;2023-07-22T07:18:13;9.20;;;4.97;;
34144;SDS011;69555;53.014;8.886;2023-07-22T07:20:38;10.05;;;4.80;;
34144;SDS011;69555;53.014;8.886;2023-07-22T07:23:04;10.98;;;5.10;;
34144;SDS011;69555;53.014;8.886;2023-07-22T07:25:29;9.23;;;3.95;;
34144;SDS011;69555;53.014;8.886;2023-07-22T07:27:54;8.30;;;4.68;;
34144;SDS011;69555;53.014;8.886;2023-07-22T07:30:20;8.13;;;4.18;;
34144;SDS011;69555;53.014;8.886;2023-07-22T07:32:46;10.77;;;4.68;;
34144;SDS011;69555;53.014;8.886;2023-07-22T07:35:11;8.00;;;4.30;;
34144;SDS011;69555;53.014;8.886;2023-07-22T07:37:37;11.10;;;5.25;;
34144;SDS011;69555;53.014;8.886;2023-07-22T07:40:02;9.55;;;4.15;;
34144;SDS011;69555;53.014;8.886;2023-07-22T07:42:29;5.97;;;3.63;;
34144;SDS011;69555;53.014;8.886;2023-07-22T07:44:54;7.43;;;3.75;;
34144;SDS011;69555;53.014;8.886;2023-07-22T07:47:20;10.63;;;4.43;;
34144;SDS011;69555;53.014;8.886;2023-07-22T07:49:45;10.18;;;3.88;;
34144;SDS011;69555;53.014;8.886;2023-07-22T07:52:11;8.93;;;4.18;;
34144;SDS011;69555;53.014;8.886;2023-07-22T07:54:36;4.90;;;3.40;;
34144;SDS011;69555;53.014;8.886;2023-07-22T07:57:02;5.50;;;3.08;;
34144;SDS011;69555;53.014;8.886;2023-07-22T07:59:27;6.63;;;3.13;;
34144;SDS011;69555;53.014;8.886;2023-07-22T08:01:52;5.25;;;2.20;;
34144;SDS011;69555;53.014;8.886;2023-07-22T08:04:18;6.68;;;2.78;;
34144;SDS011;69555;53.014;8.886;2023-07-22T08:06:43;6.43;;;2.67;;
34144;SDS011;69555;53.014;8.886;2023-07-22T08:09:10;5.15;;;2.88;;
34144;SDS011;69555;53.014;8.886;2023-07-22T08:11:36;7.10;;;2.70;;
34144;SDS011;69555;53.014;8.886;2023-07-22T08:14:03;3.97;;;2.28;;
34144;SDS011;69555;53.014;8.886;2023-07-22T08:16:30;8.07;;;3.03;;
34144;SDS011;69555;53.014;8.886;2023-07-22T08:18:55;7.45;;;2.88;;
34144;SDS011;69555;53.014;8.886;2023-07-22T08:21:21;5.72;;;3.00;;
34144;SDS011;69555;53.014;8.886;2023-07-22T08:23:46;8.82;;;3.92;;
34144;SDS011;69555;53.014;8.886;2023-07-22T08:26:12;6.25;;;3.22;;
34144;SDS011;69555;53.014;8.886;2023-07-22T08:28:38;7.88;;;3.80;;
34144;SDS011;69555;53.014;8.886;2023-07-22T08:31:03;8.18;;;4.30;;
34144;SDS011;69555;53.014;8.886;2023-07-22T08:33:29;5.75;;;3.58;;
34144;SDS011;69555;53.014;8.886;2023-07-22T08:35:55;11.10;;;4.15;;
34144;SDS011;69555;53.014;8.886;2023-07-22T08:38:20;11.30;;;4.10;;
34144;SDS011;69555;53.014;8.886;2023-07-22T08:40:48;6.57;;;3.38;;
34144;SDS011;69555;53.014;8.886;2023-07-22T08:43:16;8.27;;;4.57;;
34144;SDS011;69555;53.014;8.886;2023-07-22T08:45:45;7.57;;;4.00;;
34144;SDS011;69555;53.014;8.886;2023-07-22T08:48:12;12.93;;;4.60;;
34144;SDS011;69555;53.014;8.886;2023-07-22T08:50:48;8.90;;;4.13;;
34144;SDS011;69555;53.014;8.886;2023-07-22T08:53:16;9.63;;;4.93;;
34144;SDS011;69555;53.014;8.886;2023-07-22T08:55:44;7.72;;;4.55;;
34144;SDS011;69555;53.014;8.886;2023-07-22T08:58:10;8.57;;;4.50;;
34144;SDS011;69555;53.014;8.886;2023-07-22T09:00:37;8.13;;;4.88;;
34144;SDS011;69555;53.014;8.886;2023-07-22T09:03:03;10.77;;;5.65;;
34144;SDS011;69555;53.014;8.886;2023-07-22T09:05:30;7.55;;;5.20;;
34144;SDS011;69555;53.014;8.886;2023-07-22T09:07:57;8.27;;;5.60;;
34144;SDS011;69555;53.014;8.886;2023-07-22T09:10:24;7.28;;;4.75;;
34144;SDS011;69555;53.014;8.886;2023-07-22T09:12:51;8.20;;;5.15;;
34144;SDS011;69555;53.014;8.886;2023-07-22T09:15:17;9.07;;;5.57;;
34144;SDS011;69555;53.014;8.886;2023-07-22T09:17:43;11.38;;;6.38;;
34144;SDS011;69555;53.014;8.886;2023-07-22T09:20:11;11.70;;;5.65;;
34144;SDS011;69555;53.014;8.886;2023-07-22T09:22:42;13.07;;;7.40;;
34144;SDS011;69555;53.014;8.886;2023-07-22T09:25:17;13.48;;;6.22;;
34144;SDS011;69555;53.014;8.886;2023-07-22T09:27:48;10.90;;;6.60;;
34144;SDS011;69555;53.014;8.886;2023-07-22T09:30:25;13.57;;;5.93;;
34144;SDS011;69555;53.014;8.886;2023-07-22T09:33:03;11.48;;;6.25;;
34144;SDS011;69555;53.014;8.886;2023-07-22T09:35:31;11.77;;;6.57;;
34144;SDS011;69555;53.014;8.886;2023-07-22T09:38:08;10.83;;;6.47;;
34144;SDS011;69555;53.014;8.886;2023-07-22T09:40:34;14.10;;;7.32;;
34144;SDS011;69555;53.014;8.886;2023-07-22T09:43:08;10.40;;;7.13;;
34144;SDS011;69555;53.014;8.886;2023-07-22T09:45:35;9.68;;;6.00;;
34144;SDS011;69555;53.014;8.886;2023-07-22T09:48:08;9.75;;;6.32;;
34144;SDS011;69555;53.014;8.886;2023-07-22T09:50:35;11.23;;;7.10;;
34144;SDS011;69555;53.014;8.886;2023-07-22T09:53:02;12.25;;;6.90;;
34144;SDS011;69555;53.014;8.886;2023-07-22T09:55:30;10.98;;;7.13;;
34144;SDS011;69555;53.014;8.886;2023-07-22T09:58:03;11.10;;;6.80;;
34144;SDS011;69555;53.014;8.886;2023-07-22T10:00:36;12.90;;;6.57;;
34144;SDS011;69555;53.014;8.886;2023-07-22T10:03:02;11.80;;;6.53;;
34144;SDS011;69555;53.014;8.886;2023-07-22T10:05:34;11.00;;;6.70;;
34144;SDS011;69555;53.014;8.886;2023-07-22T10:08:01;12.27;;;6.85;;
34144;SDS011;69555;53.014;8.886;2023-07-22T10:10:31;11.32;;;6.85;;
34144;SDS011;69555;53.014;8.886;2023-07-22T10:12:57;12.05;;;7.05;;
34144;SDS011;69555;53.014;8.886;2023-07-22T10:15:24;18.80;;;7.60;;
34144;SDS011;69555;53.014;8.886;2023-07-22T10:17:51;12.50;;;6.07;;
34144;SDS011;69555;53.014;8.886;2023-07-22T10:20:19;11.07;;;7.47;;
34144;SDS011;69555;53.014;8.886;2023-07-22T10:22:46;10.57;;;6.10;;
34144;SDS011;69555;53.014;8.886;2023-07-22T10:25:19;13.25;;;6.88;;
34144;SDS011;69555;53.014;8.886;2023-07-22T10:27:46;11.63;;;7.32;;
34144;SDS011;69555;53.014;8.886;2023-07-22T10:30:13;17.23;;;7.75;;
34144;SDS011;69555;53.014;8.886;2023-07-22T10:32:43;13.10;;;7.40;;
34144;SDS011;69555;53.014;8.886;2023-07-22T10:35:12;12.48;;;7.22;;
34144;SDS011;69555;53.014;8.886;2023-07-22T10:37:46;12.13;;;7.40;;
34144;SDS011;69555;53.014;8.886;2023-07-22T10:40:26;11.98;;;6.55;;
34144;SDS011;69555;53.014;8.886;2023-07-22T10:43:00;12.38;;;5.97;;
34144;SDS011;69555;53.014;8.886;2023-07-22T10:45:29;10.00;;;6.07;;
34144;SDS011;69555;53.014;8.886;2023-07-22T10:48:05;8.70;;;5.30;;
34144;SDS011;69555;53.014;8.886;2023-07-22T11:01:21;7.20;;;4.82;;
34144;SDS011;69555;53.014;8.886;2023-07-22T11:04:08;9.98;;;4.68;;
34144;SDS011;69555;53.014;8.886;2023-07-22T11:06:38;6.88;;;4.78;;
34144;SDS011;69555;53.014;8.886;2023-07-22T11:11:55;8.95;;;5.18;;
34144;SDS011;69555;53.014;8.886;2023-07-22T11:14:58;7.25;;;5.10;;
34144;SDS011;69555;53.014;8.886;2023-07-22T11:17:28;10.93;;;4.97;;
34144;SDS011;69555;53.014;8.886;2023-07-22T11:19:56;6.85;;;4.88;;
34144;SDS011;69555;53.014;8.886;2023-07-22T11:22:22;8.95;;;4.53;;
34144;SDS011;69555;53.014;8.886;2023-07-22T11:24:47;11.07;;;5.25;;
34144;SDS011;69555;53.014;8.886;2023-07-22T11:27:13;10.85;;;4.88;;
34144;SDS011;69555;53.014;8.886;2023-07-22T11:29:39;8.13;;;5.40;;
34144;SDS011;69555;53.014;8.886;2023-07-22T11:32:05;7.95;;;4.65;;
34144;SDS011;69555;53.014;8.886;2023-07-22T11:34:32;7.15;;;4.32;;
34144;SDS011;69555;53.014;8.886;2023-07-22T11:36:58;8.30;;;4.43;;
34144;SDS011;69555;53.014;8.886;2023-07-22T11:39:26;8.68;;;4.07;;
34144;SDS011;69555;53.014;8.886;2023-07-22T11:41:56;5.78;;;3.88;;
34144;SDS011;69555;53.014;8.886;2023-07-22T11:44:26;7.35;;;4.70;;
34144;SDS011;69555;53.014;8.886;2023-07-22T11:46:55;6.47;;;4.43;;
34144;SDS011;69555;53.014;8.886;2023-07-22T11:49:25;8.53;;;4.47;;
34144;SDS011;69555;53.014;8.886;2023-07-22T11:52:08;7.05;;;4.85;;
34144;SDS011;69555;53.014;8.886;2023-07-22T11:54:40;7.70;;;4.72;;
34144;SDS011;69555;53.014;8.886;2023-07-22T11:57:17;6.80;;;4.15;;
34144;SDS011;69555;53.014;8.886;2023-07-22T11:59:50;5.43;;;3.88;;
34144;SDS011;69555;53.014;8.886;2023-07-22T12:02:17;6.93;;;4.10;;
34144;SDS011;69555;53.014;8.886;2023-07-22T12:04:57;6.78;;;4.47;;
34144;SDS011;69555;53.014;8.886;2023-07-22T12:07:49;8.45;;;4.10;;
34144;SDS011;69555;53.014;8.886;2023-07-22T12:10:16;8.00;;;4.50;;
34144;SDS011;69555;53.014;8.886;2023-07-22T12:12:44;6.57;;;4.25;;
34144;SDS011;69555;53.014;8.886;2023-07-22T12:15:18;7.57;;;4.15;;
34144;SDS011;69555;53.014;8.886;2023-07-22T12:17:56;7.07;;;3.97;;
34144;SDS011;69555;53.014;8.886;2023-07-22T12:20:31;6.40;;;3.55;;
34144;SDS011;69555;53.014;8.886;2023-07-22T12:22:59;7.55;;;4.15;;
34144;SDS011;69555;53.014;8.886;2023-07-22T12:25:27;8.55;;;4.13;;
34144;SDS011;69555;53.014;8.886;2023-07-22T12:27:54;7.50;;;4.28;;
34144;SDS011;69555;53.014;8.886;2023-07-22T12:30:21;7.95;;;3.72;;
34144;SDS011;69555;53.014;8.886;2023-07-22T12:32:47;5.78;;;4.20;;
34144;SDS011;69555;53.014;8.886;2023-07-22T12:35:14;7.68;;;4.15;;
34144;SDS011;69555;53.014;8.886;2023-07-22T12:37:41;6.07;;;4.40;;
34144;SDS011;69555;53.014;8.886;2023-07-22T12:40:08;13.70;;;4.05;;
34144;SDS011;69555;53.014;8.886;2023-07-22T12:42:35;14.85;;;4.55;;
34144;SDS011;69555;53.014;8.886;2023-07-22T12:45:03;9.32;;;4.93;;
34144;SDS011;69555;53.014;8.886;2023-07-22T12:47:36;5.82;;;4.55;;
34144;SDS011;69555;53.014;8.886;2023-07-22T12:50:03;5.32;;;3.95;;
34144;SDS011;69555;53.014;8.886;2023-07-22T12:52:30;4.63;;;3.83;;
34144;SDS011;69555;53.014;8.886;2023-07-22T12:54:57;17.30;;;9.10;;
34144;SDS011;69555;53.014;8.886;2023-07-22T12:57:24;54.97;;;31.85;;
34144;SDS011;69555;53.014;8.886;2023-07-22T12:59:49;30.92;;;18.45;;
34144;SDS011;69555;53.014;8.886;2023-07-22T13:02:17;38.13;;;24.23;;
34144;SDS011;69555;53.014;8.886;2023-07-22T13:04:43;13.90;;;8.27;;
34144;SDS011;69555;53.014;8.886;2023-07-22T13:07:10;10.18;;;6.47;;
34144;SDS011;69555;53.014;8.886;2023-07-22T13:09:36;7.57;;;4.65;;
34144;SDS011;69555;53.014;8.886;2023-07-22T13:12:02;13.00;;;7.00;;
34144;SDS011;69555;53.014;8.886;2023-07-22T13:14:30;7.57;;;4.32;;
34144;SDS011;69555;53.014;8.886;2023-07-22T13:16:57;8.35;;;6.03;;
34144;SDS011;69555;53.014;8.886;2023-07-22T13:19:22;9.60;;;6.88;;
34144;SDS011;69555;53.014;8.886;2023-07-22T13:21:48;11.07;;;5.55;;
34144;SDS011;69555;53.014;8.886;2023-07-22T13:24:13;7.10;;;5.40;;
34144;SDS011;69555;53.014;8.886;2023-07-22T13:26:40;8.82;;;5.32;;
34144;SDS011;69555;53.014;8.886;2023-07-22T13:29:06;6.07;;;4.97;;
34144;SDS011;69555;53.014;8.886;2023-07-22T13:31:35;9.63;;;6.38;;
34144;SDS011;69555;53.014;8.886;2023-07-22T13:34:01;11.77;;;6.88;;
34144;SDS011;69555;53.014;8.886;2023-07-22T13:36:28;9.73;;;6.78;;
34144;SDS011;69555;53.014;8.886;2023-07-22T13:38:54;12.13;;;7.82;;
34144;SDS011;69555;53.014;8.886;2023-07-22T13:41:21;10.07;;;7.35;;
34144;SDS011;69555;53.014;8.886;2023-07-22T13:43:51;15.40;;;7.82;;
34144;SDS011;69555;53.014;8.886;2023-07-22T13:46:19;12.52;;;8.98;;
34144;SDS011;69555;53.014;8.886;2023-07-22T13:48:46;13.10;;;8.60;;
34144;SDS011;69555;53.014;8.886;2023-07-22T13:51:12;18.02;;;10.05;;
34144;SDS011;69555;53.014;8.886;2023-07-22T13:53:39;22.73;;;10.40;;
34144;SDS011;69555;53.014;8.886;2023-07-22T13:56:06;16.60;;;10.70;;
34144;SDS011;69555;53.014;8.886;2023-07-22T13:58:33;16.05;;;9.20;;
34144;SDS011;69555;53.014;8.886;2023-07-22T14:01:00;16.58;;;10.10;;
34144;SDS011;69555;53.014;8.886;2023-07-22T14:03:26;15.88;;;10.25;;
34144;SDS011;69555;53.014;8.886;2023-07-22T14:05:52;16.90;;;10.63;;
34144;SDS011;69555;53.014;8.886;2023-07-22T14:08:19;14.63;;;9.93;;
34144;SDS011;69555;53.014;8.886;2023-07-22T14:10:46;16.92;;;11.05;;
34144;SDS011;69555;53.014;8.886;2023-07-22T14:13:12;16.85;;;9.77;;
34144;SDS011;69555;53.014;8.886;2023-07-22T14:15:40;19.20;;;10.27;;
34144;SDS011;69555;53.014;8.886;2023-07-22T14:18:08;16.38;;;9.98;;
34144;SDS011;69555;53.014;8.886;2023-07-22T14:20:34;17.35;;;10.35;;
34144;SDS011;69555;53.014;8.886;2023-07-22T14:23:01;20.38;;;10.82;;
34144;SDS011;69555;53.014;8.886;2023-07-22T14:25:30;19.25;;;11.38;;
34144;SDS011;69555;53.014;8.886;2023-07-22T14:27:56;19.35;;;10.98;;
34144;SDS011;69555;53.014;8.886;2023-07-22T14:30:21;14.95;;;10.75;;
34144;SDS011;69555;53.014;8.886;2023-07-22T14:32:49;15.18;;;10.52;;
34144;SDS011;69555;53.014;8.886;2023-07-22T14:35:16;22.70;;;11.50;;
34144;SDS011;69555;53.014;8.886;2023-07-22T14:37:43;17.30;;;10.75;;
34144;SDS011;69555;53.014;8.886;2023-07-22T14:40:08;21.88;;;12.02;;
34144;SDS011;69555;53.014;8.886;2023-07-22T14:42:35;18.25;;;11.98;;
34144;SDS011;69555;53.014;8.886;2023-07-22T14:45:02;17.13;;;11.10;;
34144;SDS011;69555;53.014;8.886;2023-07-22T14:47:29;17.98;;;11.10;;
34144;SDS011;69555;53.014;8.886;2023-07-22T14:49:57;21.25;;;11.63;;
34144;SDS011;69555;53.014;8.886;2023-07-22T14:52:24;21.92;;;12.40;;
34144;SDS011;69555;53.014;8.886;2023-07-22T14:54:51;18.20;;;11.95;;